sensor_id;sensor_type;location;lat;lon;timestamp;P1;durP1;ratioP1;P2;durP2;ratioP2
53062;SDS011;40529;52.172;10.548;2023-09-19T00:02:00;1.98;;;0.68;;
53062;SDS011;40529;52.172;10.548;2023-09-19T00:04:30;0.73;;;0.57;;
53062;SDS011;40529;52.172;10.548;2023-09-19T00:06:57;1.05;;;0.80;;
53062;SDS011;40529;52.172;10.548;2023-09-19T00:09:23;0.75;;;0.60;;
53062;SDS011;40529;52.172;10.548;2023-09-19T00:11:52;1.40;;;0.55;;
53062;SDS011;40529;52.172;10.548;2023-09-19T00:14:18;1.67;;;0.70;;
53062;SDS011;40529;52.172;10.548;2023-09-19T00:16:44;1.13;;;0.70;;
53062;SDS011;40529;52.172;10.548;2023-09-19T00:21:41;1.63;;;0.82;;
53062;SDS011;40529;52.172;10.548;2023-09-19T00:24:08;3.42;;;0.85;;
53062;SDS011;40529;52.172;10.548;2023-09-19T00:26:34;0.90;;;0.60;;
53062;SDS011;40529;52.172;10.548;2023-09-19T00:29:01;1.05;;;0.60;;
53062;SDS011;40529;52.172;10.548;2023-09-19T00:31:28;1.95;;;0.90;;
53062;SDS011;40529;52.172;10.548;2023-09-19T00:33:55;2.47;;;0.70;;
53062;SDS011;40529;52.172;10.548;2023-09-19T00:36:25;1.58;;;0.65;;
53062;SDS011;40529;52.172;10.548;2023-09-19T00:38:51;2.08;;;0.90;;
53062;SDS011;40529;52.172;10.548;2023-09-19T00:41:18;1.63;;;0.90;;
53062;SDS011;40529;52.172;10.548;2023-09-19T00:43:44;2.13;;;0.82;;
53062;SDS011;40529;52.172;10.548;2023-09-19T00:46:10;1.90;;;0.50;;
53062;SDS011;40529;52.172;10.548;2023-09-19T00:48:40;2.00;;;0.68;;
53062;SDS011;40529;52.172;10.548;2023-09-19T00:51:08;0.70;;;0.68;;
53062;SDS011;40529;52.172;10.548;2023-09-19T00:53:34;1.23;;;0.70;;
53062;SDS011;40529;52.172;10.548;2023-09-19T00:56:01;1.67;;;0.80;;
53062;SDS011;40529;52.172;10.548;2023-09-19T00:58:27;2.75;;;0.80;;
53062;SDS011;40529;52.172;10.548;2023-09-19T01:00:58;1.10;;;0.73;;
53062;SDS011;40529;52.172;10.548;2023-09-19T01:03:24;1.70;;;0.90;;
53062;SDS011;40529;52.172;10.548;2023-09-19T01:05:50;1.73;;;0.80;;
53062;SDS011;40529;52.172;10.548;2023-09-19T01:08:17;2.10;;;1.10;;
53062;SDS011;40529;52.172;10.548;2023-09-19T01:10:50;2.08;;;1.00;;
53062;SDS011;40529;52.172;10.548;2023-09-19T01:18:27;1.40;;;1.00;;
53062;SDS011;40529;52.172;10.548;2023-09-19T01:21:04;3.30;;;1.20;;
53062;SDS011;40529;52.172;10.548;2023-09-19T01:29:01;2.92;;;0.88;;
53062;SDS011;40529;52.172;10.548;2023-09-19T01:31:31;1.45;;;1.00;;
53062;SDS011;40529;52.172;10.548;2023-09-19T01:34:01;1.95;;;1.10;;
53062;SDS011;40529;52.172;10.548;2023-09-19T01:36:32;4.68;;;1.40;;
53062;SDS011;40529;52.172;10.548;2023-09-19T01:39:07;7.65;;;1.65;;
53062;SDS011;40529;52.172;10.548;2023-09-19T01:41:46;3.47;;;0.93;;
53062;SDS011;40529;52.172;10.548;2023-09-19T01:44:17;3.58;;;1.00;;
53062;SDS011;40529;52.172;10.548;2023-09-19T01:46:45;2.03;;;0.90;;
53062;SDS011;40529;52.172;10.548;2023-09-19T01:49:22;4.20;;;1.23;;
53062;SDS011;40529;52.172;10.548;2023-09-19T01:52:00;1.85;;;1.27;;
53062;SDS011;40529;52.172;10.548;2023-09-19T01:54:40;3.13;;;1.25;;
53062;SDS011;40529;52.172;10.548;2023-09-19T01:57:09;3.13;;;1.10;;
53062;SDS011;40529;52.172;10.548;2023-09-19T01:59:41;3.33;;;1.20;;
53062;SDS011;40529;52.172;10.548;2023-09-19T02:02:09;2.13;;;1.20;;
53062;SDS011;40529;52.172;10.548;2023-09-19T02:04:35;2.45;;;1.20;;
53062;SDS011;40529;52.172;10.548;2023-09-19T02:07:01;2.65;;;1.00;;
53062;SDS011;40529;52.172;10.548;2023-09-19T02:09:30;3.07;;;1.30;;
53062;SDS011;40529;52.172;10.548;2023-09-19T02:11:58;3.67;;;1.20;;
53062;SDS011;40529;52.172;10.548;2023-09-19T02:14:24;3.03;;;1.23;;
53062;SDS011;40529;52.172;10.548;2023-09-19T02:16:50;4.72;;;1.35;;
53062;SDS011;40529;52.172;10.548;2023-09-19T02:19:16;3.22;;;1.13;;
53062;SDS011;40529;52.172;10.548;2023-09-19T02:21:42;2.42;;;1.17;;
53062;SDS011;40529;52.172;10.548;2023-09-19T02:24:08;5.13;;;1.20;;
53062;SDS011;40529;52.172;10.548;2023-09-19T02:26:35;3.08;;;1.60;;
53062;SDS011;40529;52.172;10.548;2023-09-19T02:29:01;3.20;;;1.38;;
53062;SDS011;40529;52.172;10.548;2023-09-19T02:31:30;2.95;;;1.40;;
53062;SDS011;40529;52.172;10.548;2023-09-19T02:33:56;2.50;;;1.40;;
53062;SDS011;40529;52.172;10.548;2023-09-19T02:36:22;2.60;;;1.50;;
53062;SDS011;40529;52.172;10.548;2023-09-19T02:38:48;1.95;;;1.38;;
53062;SDS011;40529;52.172;10.548;2023-09-19T02:41:14;3.25;;;1.45;;
53062;SDS011;40529;52.172;10.548;2023-09-19T02:43:40;1.77;;;1.40;;
53062;SDS011;40529;52.172;10.548;2023-09-19T02:46:08;2.90;;;1.25;;
53062;SDS011;40529;52.172;10.548;2023-09-19T02:48:34;3.05;;;1.48;;
53062;SDS011;40529;52.172;10.548;2023-09-19T02:51:01;3.20;;;1.73;;
53062;SDS011;40529;52.172;10.548;2023-09-19T02:53:30;3.40;;;1.80;;
53062;SDS011;40529;52.172;10.548;2023-09-19T02:55:57;5.55;;;1.80;;
53062;SDS011;40529;52.172;10.548;2023-09-19T02:58:24;3.63;;;1.60;;
53062;SDS011;40529;52.172;10.548;2023-09-19T03:00:50;2.20;;;1.65;;
53062;SDS011;40529;52.172;10.548;2023-09-19T03:03:16;4.50;;;2.13;;
53062;SDS011;40529;52.172;10.548;2023-09-19T03:05:42;6.07;;;1.88;;
53062;SDS011;40529;52.172;10.548;2023-09-19T03:08:15;3.22;;;2.13;;
53062;SDS011;40529;52.172;10.548;2023-09-19T03:10:41;3.72;;;1.95;;
53062;SDS011;40529;52.172;10.548;2023-09-19T03:13:08;5.40;;;2.17;;
53062;SDS011;40529;52.172;10.548;2023-09-19T03:15:35;4.07;;;1.73;;
53062;SDS011;40529;52.172;10.548;2023-09-19T03:18:04;4.18;;;2.25;;
53062;SDS011;40529;52.172;10.548;2023-09-19T03:20:31;4.97;;;2.35;;
53062;SDS011;40529;52.172;10.548;2023-09-19T03:22:57;6.35;;;2.45;;
53062;SDS011;40529;52.172;10.548;2023-09-19T03:25:23;3.08;;;2.20;;
53062;SDS011;40529;52.172;10.548;2023-09-19T03:27:49;6.05;;;2.25;;
53062;SDS011;40529;52.172;10.548;2023-09-19T03:30:15;3.75;;;2.10;;
53062;SDS011;40529;52.172;10.548;2023-09-19T03:32:45;5.32;;;2.38;;
53062;SDS011;40529;52.172;10.548;2023-09-19T03:37:39;3.97;;;2.35;;
53062;SDS011;40529;52.172;10.548;2023-09-19T03:40:06;6.63;;;2.47;;
53062;SDS011;40529;52.172;10.548;2023-09-19T03:42:33;5.60;;;2.83;;
53062;SDS011;40529;52.172;10.548;2023-09-19T03:45:01;5.63;;;2.83;;
53062;SDS011;40529;52.172;10.548;2023-09-19T03:47:30;3.38;;;2.55;;
53062;SDS011;40529;52.172;10.548;2023-09-19T03:49:56;3.45;;;2.67;;
53062;SDS011;40529;52.172;10.548;2023-09-19T03:52:22;4.97;;;2.80;;
53062;SDS011;40529;52.172;10.548;2023-09-19T03:54:50;8.20;;;2.70;;
53062;SDS011;40529;52.172;10.548;2023-09-19T03:57:16;7.63;;;3.00;;
53062;SDS011;40529;52.172;10.548;2023-09-19T03:59:45;4.43;;;2.60;;
53062;SDS011;40529;52.172;10.548;2023-09-19T04:02:12;3.80;;;3.15;;
53062;SDS011;40529;52.172;10.548;2023-09-19T04:04:47;3.25;;;2.60;;
53062;SDS011;40529;52.172;10.548;2023-09-19T04:07:13;3.95;;;2.42;;
53062;SDS011;40529;52.172;10.548;2023-09-19T04:09:39;6.35;;;2.95;;
53062;SDS011;40529;52.172;10.548;2023-09-19T04:12:05;5.22;;;2.75;;
53062;SDS011;40529;52.172;10.548;2023-09-19T04:14:31;5.53;;;3.00;;
53062;SDS011;40529;52.172;10.548;2023-09-19T04:16:57;7.10;;;3.13;;
53062;SDS011;40529;52.172;10.548;2023-09-19T04:19:23;8.55;;;3.15;;
53062;SDS011;40529;52.172;10.548;2023-09-19T04:21:49;5.57;;;3.28;;
53062;SDS011;40529;52.172;10.548;2023-09-19T04:24:15;6.88;;;3.58;;
53062;SDS011;40529;52.172;10.548;2023-09-19T04:26:44;4.88;;;3.47;;
53062;SDS011;40529;52.172;10.548;2023-09-19T04:29:10;5.22;;;3.50;;
53062;SDS011;40529;52.172;10.548;2023-09-19T04:31:38;5.85;;;3.38;;
53062;SDS011;40529;52.172;10.548;2023-09-19T04:34:05;7.22;;;3.47;;
53062;SDS011;40529;52.172;10.548;2023-09-19T04:36:31;7.72;;;3.78;;
53062;SDS011;40529;52.172;10.548;2023-09-19T04:38:58;4.95;;;3.10;;
53062;SDS011;40529;52.172;10.548;2023-09-19T04:41:24;4.97;;;3.40;;
53062;SDS011;40529;52.172;10.548;2023-09-19T04:43:50;6.38;;;3.50;;
53062;SDS011;40529;52.172;10.548;2023-09-19T04:46:16;6.57;;;3.70;;
53062;SDS011;40529;52.172;10.548;2023-09-19T04:48:43;5.43;;;3.38;;
53062;SDS011;40529;52.172;10.548;2023-09-19T04:51:09;5.18;;;3.08;;
53062;SDS011;40529;52.172;10.548;2023-09-19T04:53:36;4.65;;;3.63;;
53062;SDS011;40529;52.172;10.548;2023-09-19T04:56:02;5.75;;;3.85;;
53062;SDS011;40529;52.172;10.548;2023-09-19T04:58:28;7.20;;;4.20;;
53062;SDS011;40529;52.172;10.548;2023-09-19T05:00:55;6.68;;;3.63;;
53062;SDS011;40529;52.172;10.548;2023-09-19T05:03:22;4.95;;;3.35;;
53062;SDS011;40529;52.172;10.548;2023-09-19T05:05:48;4.78;;;3.15;;
53062;SDS011;40529;52.172;10.548;2023-09-19T05:08:14;6.85;;;3.22;;
53062;SDS011;40529;52.172;10.548;2023-09-19T05:10:40;8.38;;;3.60;;
53062;SDS011;40529;52.172;10.548;2023-09-19T05:13:06;6.35;;;3.33;;
53062;SDS011;40529;52.172;10.548;2023-09-19T05:15:33;5.03;;;3.47;;
53062;SDS011;40529;52.172;10.548;2023-09-19T05:18:00;7.47;;;3.40;;
53062;SDS011;40529;52.172;10.548;2023-09-19T05:20:26;6.30;;;3.90;;
53062;SDS011;40529;52.172;10.548;2023-09-19T05:25:27;6.25;;;3.53;;
53062;SDS011;40529;52.172;10.548;2023-09-19T05:27:54;5.72;;;3.63;;
53062;SDS011;40529;52.172;10.548;2023-09-19T05:30:21;8.48;;;3.70;;
53062;SDS011;40529;52.172;10.548;2023-09-19T05:32:47;5.90;;;3.72;;
53062;SDS011;40529;52.172;10.548;2023-09-19T05:35:13;5.43;;;3.55;;
53062;SDS011;40529;52.172;10.548;2023-09-19T05:37:39;5.53;;;3.47;;
53062;SDS011;40529;52.172;10.548;2023-09-19T05:40:05;10.82;;;4.03;;
53062;SDS011;40529;52.172;10.548;2023-09-19T05:42:34;7.53;;;3.42;;
53062;SDS011;40529;52.172;10.548;2023-09-19T05:45:00;6.05;;;3.13;;
53062;SDS011;40529;52.172;10.548;2023-09-19T05:47:26;9.68;;;4.10;;
53062;SDS011;40529;52.172;10.548;2023-09-19T05:49:52;8.43;;;3.33;;
53062;SDS011;40529;52.172;10.548;2023-09-19T05:52:19;6.80;;;3.30;;
53062;SDS011;40529;52.172;10.548;2023-09-19T05:54:46;9.68;;;3.83;;
53062;SDS011;40529;52.172;10.548;2023-09-19T05:57:12;7.88;;;3.25;;
53062;SDS011;40529;52.172;10.548;2023-09-19T05:59:38;9.45;;;3.20;;
53062;SDS011;40529;52.172;10.548;2023-09-19T06:02:05;10.13;;;3.65;;
53062;SDS011;40529;52.172;10.548;2023-09-19T06:04:31;7.85;;;3.38;;
53062;SDS011;40529;52.172;10.548;2023-09-19T06:06:57;8.40;;;3.95;;
53062;SDS011;40529;52.172;10.548;2023-09-19T06:09:23;6.28;;;3.33;;
53062;SDS011;40529;52.172;10.548;2023-09-19T06:11:49;8.75;;;3.70;;
53062;SDS011;40529;52.172;10.548;2023-09-19T06:14:16;10.13;;;3.35;;
53062;SDS011;40529;52.172;10.548;2023-09-19T06:16:42;8.63;;;3.30;;
53062;SDS011;40529;52.172;10.548;2023-09-19T06:19:09;10.50;;;3.28;;
53062;SDS011;40529;52.172;10.548;2023-09-19T06:21:35;9.52;;;3.30;;
53062;SDS011;40529;52.172;10.548;2023-09-19T06:24:01;6.18;;;3.20;;
53062;SDS011;40529;52.172;10.548;2023-09-19T06:26:28;8.35;;;3.50;;
53062;SDS011;40529;52.172;10.548;2023-09-19T06:28:54;8.85;;;3.20;;
53062;SDS011;40529;52.172;10.548;2023-09-19T06:31:21;7.05;;;3.15;;
53062;SDS011;40529;52.172;10.548;2023-09-19T06:33:51;8.18;;;3.28;;
53062;SDS011;40529;52.172;10.548;2023-09-19T06:36:17;6.78;;;3.08;;
53062;SDS011;40529;52.172;10.548;2023-09-19T06:38:44;10.77;;;2.90;;
53062;SDS011;40529;52.172;10.548;2023-09-19T06:41:10;8.85;;;2.97;;
53062;SDS011;40529;52.172;10.548;2023-09-19T06:43:36;7.88;;;2.50;;
53062;SDS011;40529;52.172;10.548;2023-09-19T06:46:02;9.43;;;2.72;;
53062;SDS011;40529;52.172;10.548;2023-09-19T06:48:29;9.70;;;2.47;;
53062;SDS011;40529;52.172;10.548;2023-09-19T06:50:56;8.43;;;2.75;;
53062;SDS011;40529;52.172;10.548;2023-09-19T06:53:23;10.35;;;2.88;;
53062;SDS011;40529;52.172;10.548;2023-09-19T06:55:50;10.48;;;2.60;;
53062;SDS011;40529;52.172;10.548;2023-09-19T06:58:16;8.27;;;2.45;;
53062;SDS011;40529;52.172;10.548;2023-09-19T07:00:42;8.73;;;2.63;;
53062;SDS011;40529;52.172;10.548;2023-09-19T07:03:09;8.20;;;2.20;;
53062;SDS011;40529;52.172;10.548;2023-09-19T07:05:39;10.65;;;2.28;;
53062;SDS011;40529;52.172;10.548;2023-09-19T07:08:06;8.57;;;1.98;;
53062;SDS011;40529;52.172;10.548;2023-09-19T07:10:33;8.18;;;2.30;;
53062;SDS011;40529;52.172;10.548;2023-09-19T07:13:06;10.60;;;2.50;;
53062;SDS011;40529;52.172;10.548;2023-09-19T07:15:34;11.15;;;2.63;;
53062;SDS011;40529;52.172;10.548;2023-09-19T07:18:03;6.82;;;1.88;;
53062;SDS011;40529;52.172;10.548;2023-09-19T07:20:29;7.15;;;2.10;;
53062;SDS011;40529;52.172;10.548;2023-09-19T07:22:57;7.93;;;2.35;;
53062;SDS011;40529;52.172;10.548;2023-09-19T07:25:29;10.07;;;2.67;;
53062;SDS011;40529;52.172;10.548;2023-09-19T07:27:56;7.30;;;2.33;;
53062;SDS011;40529;52.172;10.548;2023-09-19T07:30:25;11.80;;;2.43;;
53062;SDS011;40529;52.172;10.548;2023-09-19T07:32:51;7.93;;;2.50;;
53062;SDS011;40529;52.172;10.548;2023-09-19T07:35:17;8.77;;;2.55;;
53062;SDS011;40529;52.172;10.548;2023-09-19T07:37:47;12.90;;;2.20;;
53062;SDS011;40529;52.172;10.548;2023-09-19T07:40:21;11.73;;;2.72;;
53062;SDS011;40529;52.172;10.548;2023-09-19T07:42:48;8.45;;;2.10;;
53062;SDS011;40529;52.172;10.548;2023-09-19T07:45:15;8.75;;;2.40;;
53062;SDS011;40529;52.172;10.548;2023-09-19T07:47:44;6.28;;;2.20;;
53062;SDS011;40529;52.172;10.548;2023-09-19T07:50:11;11.13;;;2.28;;
53062;SDS011;40529;52.172;10.548;2023-09-19T07:52:37;8.50;;;2.33;;
53062;SDS011;40529;52.172;10.548;2023-09-19T07:55:04;9.05;;;2.10;;
53062;SDS011;40529;52.172;10.548;2023-09-19T07:57:34;7.95;;;1.95;;
53062;SDS011;40529;52.172;10.548;2023-09-19T08:00:00;7.57;;;2.13;;
53062;SDS011;40529;52.172;10.548;2023-09-19T08:02:26;10.18;;;2.13;;
53062;SDS011;40529;52.172;10.548;2023-09-19T08:04:53;7.10;;;1.90;;
53062;SDS011;40529;52.172;10.548;2023-09-19T08:07:20;12.13;;;2.17;;
53062;SDS011;40529;52.172;10.548;2023-09-19T08:09:48;9.38;;;2.17;;
53062;SDS011;40529;52.172;10.548;2023-09-19T08:12:14;10.95;;;1.90;;
53062;SDS011;40529;52.172;10.548;2023-09-19T08:14:40;7.22;;;2.38;;
53062;SDS011;40529;52.172;10.548;2023-09-19T08:17:06;12.95;;;2.63;;
53062;SDS011;40529;52.172;10.548;2023-09-19T08:19:33;7.65;;;1.83;;
53062;SDS011;40529;52.172;10.548;2023-09-19T08:21:59;7.72;;;2.05;;
53062;SDS011;40529;52.172;10.548;2023-09-19T08:24:28;7.78;;;2.42;;
53062;SDS011;40529;52.172;10.548;2023-09-19T08:26:55;13.77;;;2.13;;
53062;SDS011;40529;52.172;10.548;2023-09-19T08:29:24;6.25;;;2.03;;
53062;SDS011;40529;52.172;10.548;2023-09-19T08:31:53;4.68;;;1.58;;
53062;SDS011;40529;52.172;10.548;2023-09-19T08:34:19;9.57;;;1.98;;
53062;SDS011;40529;52.172;10.548;2023-09-19T08:36:46;10.50;;;2.03;;
53062;SDS011;40529;52.172;10.548;2023-09-19T08:39:13;7.65;;;1.83;;
53062;SDS011;40529;52.172;10.548;2023-09-19T08:41:39;11.05;;;2.00;;
53062;SDS011;40529;52.172;10.548;2023-09-19T08:44:05;9.32;;;2.13;;
53062;SDS011;40529;52.172;10.548;2023-09-19T08:46:31;6.43;;;1.50;;
53062;SDS011;40529;52.172;10.548;2023-09-19T08:51:27;9.45;;;1.75;;
53062;SDS011;40529;52.172;10.548;2023-09-19T08:54:02;6.80;;;1.60;;
53062;SDS011;40529;52.172;10.548;2023-09-19T08:56:29;7.10;;;1.70;;
53062;SDS011;40529;52.172;10.548;2023-09-19T08:58:57;7.63;;;1.83;;
53062;SDS011;40529;52.172;10.548;2023-09-19T09:01:24;9.90;;;2.15;;
53062;SDS011;40529;52.172;10.548;2023-09-19T09:03:53;8.38;;;1.83;;
53062;SDS011;40529;52.172;10.548;2023-09-19T09:06:23;8.30;;;1.90;;
53062;SDS011;40529;52.172;10.548;2023-09-19T09:08:52;7.35;;;1.88;;
53062;SDS011;40529;52.172;10.548;2023-09-19T09:11:18;6.70;;;1.40;;
53062;SDS011;40529;52.172;10.548;2023-09-19T09:13:44;6.85;;;1.50;;
53062;SDS011;40529;52.172;10.548;2023-09-19T09:16:11;5.38;;;1.60;;
53062;SDS011;40529;52.172;10.548;2023-09-19T09:18:37;9.13;;;2.38;;
53062;SDS011;40529;52.172;10.548;2023-09-19T09:21:03;6.18;;;1.42;;
53062;SDS011;40529;52.172;10.548;2023-09-19T09:23:29;5.63;;;1.83;;
53062;SDS011;40529;52.172;10.548;2023-09-19T09:25:57;9.38;;;2.30;;
53062;SDS011;40529;52.172;10.548;2023-09-19T09:28:27;7.88;;;2.00;;
53062;SDS011;40529;52.172;10.548;2023-09-19T09:30:54;5.90;;;1.85;;
53062;SDS011;40529;52.172;10.548;2023-09-19T09:33:20;4.68;;;1.55;;
53062;SDS011;40529;52.172;10.548;2023-09-19T09:35:53;9.05;;;1.70;;
53062;SDS011;40529;52.172;10.548;2023-09-19T09:38:24;6.38;;;1.75;;
53062;SDS011;40529;52.172;10.548;2023-09-19T09:40:56;7.05;;;1.55;;
53062;SDS011;40529;52.172;10.548;2023-09-19T09:43:30;6.78;;;1.70;;
53062;SDS011;40529;52.172;10.548;2023-09-19T09:46:08;6.97;;;1.65;;
53062;SDS011;40529;52.172;10.548;2023-09-19T09:49:03;7.93;;;1.92;;
53062;SDS011;40529;52.172;10.548;2023-09-19T09:52:02;5.15;;;1.63;;
53062;SDS011;40529;52.172;10.548;2023-09-19T09:54:57;6.40;;;1.60;;
53062;SDS011;40529;52.172;10.548;2023-09-19T09:57:24;10.00;;;3.10;;
53062;SDS011;40529;52.172;10.548;2023-09-19T09:59:54;5.80;;;1.75;;
53062;SDS011;40529;52.172;10.548;2023-09-19T10:02:35;6.63;;;1.77;;
53062;SDS011;40529;52.172;10.548;2023-09-19T10:05:11;6.95;;;1.25;;
53062;SDS011;40529;52.172;10.548;2023-09-19T10:07:53;5.30;;;1.85;;
53062;SDS011;40529;52.172;10.548;2023-09-19T10:10:31;6.32;;;1.92;;
53062;SDS011;40529;52.172;10.548;2023-09-19T10:13:20;4.88;;;1.42;;
53062;SDS011;40529;52.172;10.548;2023-09-19T10:15:49;7.22;;;1.88;;
53062;SDS011;40529;52.172;10.548;2023-09-19T10:18:25;6.00;;;1.48;;
53062;SDS011;40529;52.172;10.548;2023-09-19T10:20:53;7.90;;;1.55;;
53062;SDS011;40529;52.172;10.548;2023-09-19T10:23:20;7.30;;;1.67;;
53062;SDS011;40529;52.172;10.548;2023-09-19T10:25:50;7.80;;;1.63;;
53062;SDS011;40529;52.172;10.548;2023-09-19T10:28:17;6.35;;;2.00;;
53062;SDS011;40529;52.172;10.548;2023-09-19T10:30:55;6.50;;;2.08;;
53062;SDS011;40529;52.172;10.548;2023-09-19T10:33:22;7.03;;;1.67;;
53062;SDS011;40529;52.172;10.548;2023-09-19T10:38:18;7.35;;;1.90;;
53062;SDS011;40529;52.172;10.548;2023-09-19T10:40:48;8.07;;;2.50;;
53062;SDS011;40529;52.172;10.548;2023-09-19T10:43:16;6.47;;;1.98;;
53062;SDS011;40529;52.172;10.548;2023-09-19T10:45:49;6.85;;;2.20;;
53062;SDS011;40529;52.172;10.548;2023-09-19T10:48:17;8.88;;;2.05;;
53062;SDS011;40529;52.172;10.548;2023-09-19T10:53:20;10.60;;;2.40;;
53062;SDS011;40529;52.172;10.548;2023-09-19T10:55:54;10.55;;;2.38;;
53062;SDS011;40529;52.172;10.548;2023-09-19T10:58:31;8.35;;;2.05;;
53062;SDS011;40529;52.172;10.548;2023-09-19T11:00:59;7.93;;;2.08;;
53062;SDS011;40529;52.172;10.548;2023-09-19T11:03:37;5.22;;;1.95;;
53062;SDS011;40529;52.172;10.548;2023-09-19T11:06:17;6.47;;;1.90;;
53062;SDS011;40529;52.172;10.548;2023-09-19T11:09:02;7.70;;;2.15;;
53062;SDS011;40529;52.172;10.548;2023-09-19T11:16:40;8.45;;;2.33;;
53062;SDS011;40529;52.172;10.548;2023-09-19T11:19:08;5.90;;;1.98;;
53062;SDS011;40529;52.172;10.548;2023-09-19T11:26:47;6.25;;;1.98;;
53062;SDS011;40529;52.172;10.548;2023-09-19T11:29:32;5.35;;;2.25;;
53062;SDS011;40529;52.172;10.548;2023-09-19T11:31:58;3.63;;;1.70;;
53062;SDS011;40529;52.172;10.548;2023-09-19T11:37:18;7.13;;;2.10;;
53062;SDS011;40529;52.172;10.548;2023-09-19T11:40:08;7.10;;;1.98;;
53062;SDS011;40529;52.172;10.548;2023-09-19T11:42:42;6.93;;;2.03;;
53062;SDS011;40529;52.172;10.548;2023-09-19T11:46:00;5.60;;;1.77;;
53062;SDS011;40529;52.172;10.548;2023-09-19T11:48:11;9.23;;;2.90;;
53062;SDS011;40529;52.172;10.548;2023-09-19T11:50:40;5.85;;;2.10;;
53062;SDS011;40529;52.172;10.548;2023-09-19T11:53:09;6.30;;;2.17;;
53062;SDS011;40529;52.172;10.548;2023-09-19T11:55:36;8.52;;;2.10;;
53062;SDS011;40529;52.172;10.548;2023-09-19T11:58:03;7.55;;;2.25;;
53062;SDS011;40529;52.172;10.548;2023-09-19T12:00:29;8.35;;;1.88;;
53062;SDS011;40529;52.172;10.548;2023-09-19T12:02:56;5.68;;;1.75;;
53062;SDS011;40529;52.172;10.548;2023-09-19T12:05:30;9.93;;;2.10;;
53062;SDS011;40529;52.172;10.548;2023-09-19T12:07:58;6.97;;;2.22;;
53062;SDS011;40529;52.172;10.548;2023-09-19T12:10:24;5.65;;;2.08;;
53062;SDS011;40529;52.172;10.548;2023-09-19T12:12:51;8.32;;;2.15;;
53062;SDS011;40529;52.172;10.548;2023-09-19T12:15:25;8.57;;;2.10;;
53062;SDS011;40529;52.172;10.548;2023-09-19T12:17:53;8.60;;;3.17;;
53062;SDS011;40529;52.172;10.548;2023-09-19T12:20:20;4.78;;;1.70;;
53062;SDS011;40529;52.172;10.548;2023-09-19T12:22:46;8.77;;;2.17;;
53062;SDS011;40529;52.172;10.548;2023-09-19T12:25:15;6.75;;;2.08;;
53062;SDS011;40529;52.172;10.548;2023-09-19T12:30:09;8.90;;;2.53;;
53062;SDS011;40529;52.172;10.548;2023-09-19T12:32:35;7.40;;;2.15;;
53062;SDS011;40529;52.172;10.548;2023-09-19T12:35:05;6.18;;;2.00;;
53062;SDS011;40529;52.172;10.548;2023-09-19T12:37:35;7.68;;;1.90;;
53062;SDS011;40529;52.172;10.548;2023-09-19T12:40:05;5.68;;;2.05;;
53062;SDS011;40529;52.172;10.548;2023-09-19T12:42:43;6.13;;;2.00;;
53062;SDS011;40529;52.172;10.548;2023-09-19T12:45:09;5.55;;;1.92;;
53062;SDS011;40529;52.172;10.548;2023-09-19T12:47:38;8.67;;;2.20;;
53062;SDS011;40529;52.172;10.548;2023-09-19T12:52:42;9.30;;;2.10;;
53062;SDS011;40529;52.172;10.548;2023-09-19T12:55:19;6.30;;;2.25;;
53062;SDS011;40529;52.172;10.548;2023-09-19T12:57:56;5.32;;;2.08;;
53062;SDS011;40529;52.172;10.548;2023-09-19T13:00:31;7.50;;;2.28;;
53062;SDS011;40529;52.172;10.548;2023-09-19T13:03:09;6.82;;;2.25;;
53062;SDS011;40529;52.172;10.548;2023-09-19T13:05:58;11.25;;;2.28;;
53062;SDS011;40529;52.172;10.548;2023-09-19T13:08:26;5.20;;;1.95;;
53062;SDS011;40529;52.172;10.548;2023-09-19T13:13:34;7.05;;;1.80;;
53062;SDS011;40529;52.172;10.548;2023-09-19T13:16:02;5.35;;;1.85;;
53062;SDS011;40529;52.172;10.548;2023-09-19T13:18:29;8.10;;;2.38;;
53062;SDS011;40529;52.172;10.548;2023-09-19T13:21:09;4.63;;;1.70;;
53062;SDS011;40529;52.172;10.548;2023-09-19T13:23:47;5.05;;;2.15;;
53062;SDS011;40529;52.172;10.548;2023-09-19T13:26:13;6.78;;;1.83;;
53062;SDS011;40529;52.172;10.548;2023-09-19T13:28:40;5.22;;;2.10;;
53062;SDS011;40529;52.172;10.548;2023-09-19T13:31:06;6.72;;;1.92;;
53062;SDS011;40529;52.172;10.548;2023-09-19T13:33:33;9.23;;;2.58;;
53062;SDS011;40529;52.172;10.548;2023-09-19T13:36:00;5.80;;;2.05;;
53062;SDS011;40529;52.172;10.548;2023-09-19T13:38:26;4.40;;;1.92;;
53062;SDS011;40529;52.172;10.548;2023-09-19T13:40:53;7.65;;;2.28;;
53062;SDS011;40529;52.172;10.548;2023-09-19T13:43:19;6.43;;;2.25;;
53062;SDS011;40529;52.172;10.548;2023-09-19T13:45:47;8.70;;;2.13;;
53062;SDS011;40529;52.172;10.548;2023-09-19T13:48:13;8.80;;;2.67;;
53062;SDS011;40529;52.172;10.548;2023-09-19T13:50:39;7.15;;;1.98;;
53062;SDS011;40529;52.172;10.548;2023-09-19T13:53:07;8.95;;;2.15;;
53062;SDS011;40529;52.172;10.548;2023-09-19T13:55:34;8.57;;;2.00;;
53062;SDS011;40529;52.172;10.548;2023-09-19T13:58:00;7.55;;;2.53;;
53062;SDS011;40529;52.172;10.548;2023-09-19T14:00:26;8.18;;;2.47;;
53062;SDS011;40529;52.172;10.548;2023-09-19T14:02:53;6.22;;;2.03;;
53062;SDS011;40529;52.172;10.548;2023-09-19T14:05:19;6.60;;;2.30;;
53062;SDS011;40529;52.172;10.548;2023-09-19T14:07:45;6.47;;;2.15;;
53062;SDS011;40529;52.172;10.548;2023-09-19T14:10:11;6.10;;;1.92;;
53062;SDS011;40529;52.172;10.548;2023-09-19T14:12:38;5.70;;;2.00;;
53062;SDS011;40529;52.172;10.548;2023-09-19T14:15:07;4.68;;;2.05;;
53062;SDS011;40529;52.172;10.548;2023-09-19T14:17:34;6.38;;;2.08;;
53062;SDS011;40529;52.172;10.548;2023-09-19T14:20:00;8.85;;;2.35;;
53062;SDS011;40529;52.172;10.548;2023-09-19T14:22:26;6.15;;;2.47;;
53062;SDS011;40529;52.172;10.548;2023-09-19T14:24:52;5.28;;;2.10;;
53062;SDS011;40529;52.172;10.548;2023-09-19T14:27:18;7.03;;;2.30;;
53062;SDS011;40529;52.172;10.548;2023-09-19T14:29:44;6.80;;;2.17;;
53062;SDS011;40529;52.172;10.548;2023-09-19T14:32:10;6.15;;;1.90;;
53062;SDS011;40529;52.172;10.548;2023-09-19T14:34:36;5.00;;;2.28;;
53062;SDS011;40529;52.172;10.548;2023-09-19T14:37:07;8.13;;;2.17;;
53062;SDS011;40529;52.172;10.548;2023-09-19T14:39:33;5.25;;;2.05;;
53062;SDS011;40529;52.172;10.548;2023-09-19T14:41:59;5.32;;;2.10;;
53062;SDS011;40529;52.172;10.548;2023-09-19T14:44:25;6.55;;;2.20;;
53062;SDS011;40529;52.172;10.548;2023-09-19T14:46:51;8.05;;;1.95;;
53062;SDS011;40529;52.172;10.548;2023-09-19T14:49:17;5.72;;;1.95;;
53062;SDS011;40529;52.172;10.548;2023-09-19T14:51:43;5.50;;;2.05;;
53062;SDS011;40529;52.172;10.548;2023-09-19T14:54:10;6.03;;;1.90;;
53062;SDS011;40529;52.172;10.548;2023-09-19T14:56:36;5.43;;;2.05;;
53062;SDS011;40529;52.172;10.548;2023-09-19T14:59:02;4.72;;;2.03;;
53062;SDS011;40529;52.172;10.548;2023-09-19T15:01:28;6.03;;;2.30;;
53062;SDS011;40529;52.172;10.548;2023-09-19T15:03:55;4.72;;;1.92;;
53062;SDS011;40529;52.172;10.548;2023-09-19T15:06:21;7.28;;;1.90;;
53062;SDS011;40529;52.172;10.548;2023-09-19T15:08:47;7.78;;;2.17;;
53062;SDS011;40529;52.172;10.548;2023-09-19T15:11:15;4.03;;;1.80;;
53062;SDS011;40529;52.172;10.548;2023-09-19T15:13:42;7.03;;;2.03;;
53062;SDS011;40529;52.172;10.548;2023-09-19T15:16:09;4.07;;;1.73;;
53062;SDS011;40529;52.172;10.548;2023-09-19T15:18:39;5.50;;;2.13;;
53062;SDS011;40529;52.172;10.548;2023-09-19T15:21:07;4.22;;;1.83;;
53062;SDS011;40529;52.172;10.548;2023-09-19T15:23:34;5.60;;;1.80;;
53062;SDS011;40529;52.172;10.548;2023-09-19T15:26:01;5.97;;;1.67;;
53062;SDS011;40529;52.172;10.548;2023-09-19T15:28:28;9.77;;;1.88;;